Time;durP1;ratioP1;P1;durP2;ratioP2;P2;SDS_P1;SDS_P2;PMS_P1;PMS_P2;Temp;Humidity;BMP_temperature;BMP_pressure;BME280_temperature;BME280_humidity;BME280_pressure;Samples;Min_cycle;Max_cycle;Signal;HPM_P1;HPM_P2
2023/04/11 00:02:22;;;;;;;;;;;;;;;10.97;66.94;100579.63;5296164;32;33529;-67
2023/04/11 00:05:25;;;;;;;;;;;;;;;10.81;68.29;100574.06;5323691;32;33986;-67
2023/04/11 00:08:27;;;;;;;;;;;;;;;11.50;65.35;100566.16;5309539;32;32906;-67
2023/04/11 00:11:30;;;;;;;;;;;;;;;11.49;65.50;100568.87;5309197;32;34441;-68
2023/04/11 00:14:33;;;;;;;;;;;;;;;10.93;67.92;100575.41;5323189;32;34076;-73
2023/04/11 00:17:36;;;;;;;;;;;;;;;10.45;71.12;100570.19;5295210;32;32159;-77
2023/04/11 00:20:38;;;;;;;;;;;;;;;10.78;70.27;100563.69;5309757;32;33705;-77
2023/04/11 00:23:40;;;;;;;;;;;;;;;10.73;70.23;100565.63;5320869;32;43254;-77
2023/04/11 00:26:42;;;;;;;;;;;;;;;10.58;69.69;100561.78;5325161;32;33283;-66
2023/04/11 00:29:44;;;;;;;;;;;;;;;10.18;71.46;100557.06;5316735;32;33004;-66
2023/04/11 00:32:46;;;;;;;;;;;;;;;10.64;70.65;100563.34;5307486;32;33742;-67
2023/04/11 00:35:48;;;;;;;;;;;;;;;11.04;68.54;100553.97;5309451;32;34469;-67
2023/04/11 00:38:50;;;;;;;;;;;;;;;11.34;65.60;100541.41;5309165;32;33771;-68
2023/04/11 00:41:52;;;;;;;;;;;;;;;11.72;64.34;100541.59;5322408;32;33671;-65
2023/04/11 00:44:54;;;;;;;;;;;;;;;11.71;63.94;100534.63;5311266;32;33114;-74
2023/04/11 00:47:56;;;;;;;;;;;;;;;10.48;68.85;100549.03;5321723;32;33640;-67
2023/04/11 00:50:58;;;;;;;;;;;;;;;11.00;67.53;100536.56;5313301;32;34044;-66
2023/04/11 00:54:00;;;;;;;;;;;;;;;11.16;65.92;100535.06;5298353;32;34081;-79
2023/04/11 00:57:03;;;;;;;;;;;;;;;10.61;67.20;100537.16;5308576;32;33854;-78
2023/04/11 01:00:08;;;;;;;;;;;;;;;10.74;68.06;100537.56;5297114;32;33151;-67
2023/04/11 01:03:10;;;;;;;;;;;;;;;10.74;67.27;100538.41;5320020;32;44547;-67
2023/04/11 01:06:13;;;;;;;;;;;;;;;11.06;66.35;100531.94;5313124;32;33903;-78
2023/04/11 01:09:15;;;;;;;;;;;;;;;10.76;66.52;100533.13;5319660;32;34337;-77
2023/04/11 01:12:17;;;;;;;;;;;;;;;9.80;71.80;100533.88;5299301;32;34469;-78
2023/04/11 01:15:19;;;;;;;;;;;;;;;9.82;71.54;100529.44;5297002;32;34819;-66
2023/04/11 01:18:21;;;;;;;;;;;;;;;9.71;73.05;100516.66;5322197;32;34010;-66
2023/04/11 01:21:23;;;;;;;;;;;;;;;9.97;71.69;100519.25;5308650;32;33246;-66
2023/04/11 01:24:25;;;;;;;;;;;;;;;10.99;66.98;100519.94;5310386;32;33823;-66
2023/04/11 01:27:28;;;;;;;;;;;;;;;11.11;65.42;100516.84;5296171;32;33963;-66
2023/04/11 01:30:29;;;;;;;;;;;;;;;10.70;66.58;100521.06;5287519;32;34539;-77
2023/04/11 01:33:32;;;;;;;;;;;;;;;10.45;67.98;100509.75;5317723;32;34013;-73
2023/04/11 01:36:35;;;;;;;;;;;;;;;9.49;72.11;100506.88;5294701;32;33529;-76
2023/04/11 01:39:37;;;;;;;;;;;;;;;9.38;72.91;100510.75;5325314;32;36955;-77
2023/04/11 01:42:39;;;;;;;;;;;;;;;10.76;66.23;100497.16;5302848;32;35856;-79
2023/04/11 01:45:41;;;;;;;;;;;;;;;11.13;64.48;100493.94;5308496;32;45315;-78
2023/04/11 01:48:44;;;;;;;;;;;;;;;10.53;66.00;100494.53;5310983;32;33587;-78
2023/04/11 01:51:46;;;;;;;;;;;;;;;10.28;67.07;100495.44;5321772;32;34042;-79
2023/04/11 01:54:48;;;;;;;;;;;;;;;10.04;68.55;100489.25;5335116;32;34767;-66
2023/04/11 01:57:50;;;;;;;;;;;;;;;9.92;69.09;100499.34;5325894;32;33418;-74
2023/04/11 02:00:52;;;;;;;;;;;;;;;10.43;66.99;100494.03;5325708;32;34236;-67
2023/04/11 02:03:54;;;;;;;;;;;;;;;10.40;67.02;100482.78;5322984;32;33900;-67
2023/04/11 02:06:56;;;;;;;;;;;;;;;9.96;68.04;100479.94;5324735;32;34068;-67
2023/04/11 02:09:58;;;;;;;;;;;;;;;9.57;70.68;100484.78;5328450;32;33182;-73
2023/04/11 02:13:00;;;;;;;;;;;;;;;9.46;71.28;100488.59;5309647;32;34450;-73
2023/04/11 02:16:10;;;;;;;;;;;;;;;9.78;70.32;100486.66;5302870;32;33891;-66
2023/04/11 02:19:12;;;;;;;;;;;;;;;9.96;68.70;100487.81;5324678;32;44595;-66
2023/04/11 02:22:14;;;;;;;;;;;;;;;10.51;66.95;100475.34;5331385;32;33523;-65
2023/04/11 02:25:16;;;;;;;;;;;;;;;10.96;64.12;100469.25;5309993;32;33946;-79
2023/04/11 02:28:18;;;;;;;;;;;;;;;10.72;64.11;100471.91;5307976;32;33212;-65
2023/04/11 02:31:20;;;;;;;;;;;;;;;10.09;66.84;100465.44;5288858;32;33130;-77
2023/04/11 02:34:22;;;;;;;;;;;;;;;9.19;69.94;100468.50;5325879;32;34363;-74
2023/04/11 02:37:25;;;;;;;;;;;;;;;9.00;72.19;100463.00;5317051;32;34433;-66
2023/04/11 02:40:27;;;;;;;;;;;;;;;9.12;71.03;100465.22;5296201;32;34099;-66
2023/04/11 02:43:28;;;;;;;;;;;;;;;9.22;71.75;100463.19;5320146;32;34261;-66
2023/04/11 02:46:30;;;;;;;;;;;;;;;10.20;67.16;100465.06;5310175;32;34143;-77
2023/04/11 02:49:32;;;;;;;;;;;;;;;9.95;66.60;100459.84;5311260;32;33799;-66
2023/04/11 02:52:36;;;;;;;;;;;;;;;9.07;70.28;100464.50;5319253;32;34477;-66
2023/04/11 02:55:38;;;;;;;;;;;;;;;8.95;71.41;100464.91;5317735;32;34444;-78
2023/04/11 02:58:40;;;;;;;;;;;;;;;8.98;72.06;100449.09;5337589;32;35959;-67
2023/04/11 03:01:59;;;;;;;;;;;;;;;9.32;70.19;100454.09;5327976;32;34009;-66
2023/04/11 03:05:02;;;;;;;;;;;;;;;8.80;72.98;100466.22;5312387;32;34545;-73
2023/04/11 03:08:07;;;;;;;;;;;;;;;8.61;74.62;100460.69;5320322;32;34033;-66
2023/04/11 03:11:09;;;;;;;;;;;;;;;9.07;72.30;100454.03;5326219;32;33947;-77
2023/04/11 03:14:11;;;;;;;;;;;;;;;9.01;72.16;100453.38;5311426;32;45369;-67
2023/04/11 03:17:13;;;;;;;;;;;;;;;9.73;68.96;100460.59;5310798;32;33931;-66
2023/04/11 03:20:18;;;;;;;;;;;;;;;10.50;64.57;100447.37;5323270;32;33818;-78
2023/04/11 03:23:20;;;;;;;;;;;;;;;10.25;64.93;100460.56;5313862;32;34109;-66
2023/04/11 03:26:25;;;;;;;;;;;;;;;10.09;65.58;100457.56;5340532;32;33897;-77
2023/04/11 03:29:27;;;;;;;;;;;;;;;9.59;66.67;100454.09;5312385;32;33299;-66
2023/04/11 03:32:29;;;;;;;;;;;;;;;9.32;69.12;100448.84;5314070;32;35214;-65
2023/04/11 03:35:31;;;;;;;;;;;;;;;9.43;67.95;100449.38;5316610;32;34390;-66
2023/04/11 03:38:33;;;;;;;;;;;;;;;9.57;67.45;100450.66;5298131;32;33600;-78
2023/04/11 03:41:35;;;;;;;;;;;;;;;8.89;70.82;100452.88;5323612;32;33544;-66
2023/04/11 03:44:37;;;;;;;;;;;;;;;8.41;73.05;100447.31;5297414;32;33954;-77
2023/04/11 03:47:39;;;;;;;;;;;;;;;8.70;72.31;100445.62;5309639;32;33412;-78
2023/04/11 03:50:41;;;;;;;;;;;;;;;8.72;73.16;100444.66;5296699;32;44954;-66
2023/04/11 03:53:43;;;;;;;;;;;;;;;8.56;73.96;100452.09;5305516;32;33819;-77
2023/04/11 03:56:45;;;;;;;;;;;;;;;8.68;73.24;100443.03;5316544;32;33353;-66
2023/04/11 03:59:47;;;;;;;;;;;;;;;8.50;73.84;100451.44;5310615;32;34729;-78
2023/04/11 04:02:49;;;;;;;;;;;;;;;8.27;74.20;100455.56;5326463;32;33553;-77
2023/04/11 04:05:52;;;;;;;;;;;;;;;8.23;74.89;100455.66;5307467;32;33798;-76
2023/04/11 04:08:54;;;;;;;;;;;;;;;8.28;74.69;100452.03;5307495;32;34105;-78
2023/04/11 04:11:56;;;;;;;;;;;;;;;8.40;72.66;100449.09;5297029;32;34365;-77
2023/04/11 04:14:58;;;;;;;;;;;;;;;8.35;73.40;100453.59;5314540;32;34064;-66
2023/04/11 04:18:00;;;;;;;;;;;;;;;8.51;72.38;100450.56;5317548;32;34191;-67
2023/04/11 04:21:02;;;;;;;;;;;;;;;8.56;71.68;100435.53;5311402;32;33881;-66
2023/04/11 04:24:04;;;;;;;;;;;;;;;8.84;69.99;100440.81;5331556;32;34305;-73
2023/04/11 04:27:07;;;;;;;;;;;;;;;9.19;68.42;100444.91;5326489;32;34587;-66
2023/04/11 04:30:10;;;;;;;;;;;;;;;9.33;67.80;100444.47;5301668;32;34099;-77
2023/04/11 04:33:13;;;;;;;;;;;;;;;8.43;71.91;100445.50;5291449;32;44755;-67
2023/04/11 04:36:16;;;;;;;;;;;;;;;8.65;69.72;100446.59;5318785;32;33136;-66
2023/04/11 04:39:18;;;;;;;;;;;;;;;9.52;67.06;100449.97;5331871;32;34619;-66
2023/04/11 04:42:24;;;;;;;;;;;;;;;10.31;63.44;100447.19;5326143;32;34175;-67
2023/04/11 04:45:26;;;;;;;;;;;;;;;9.10;65.78;100455.72;5337381;32;33963;-68
2023/04/11 04:48:28;;;;;;;;;;;;;;;9.43;67.30;100451.97;5325259;32;34068;-68
2023/04/11 04:51:30;;;;;;;;;;;;;;;8.61;70.53;100444.13;5327949;32;34545;-67
2023/04/11 04:54:32;;;;;;;;;;;;;;;9.39;67.43;100447.75;5310109;32;34293;-67
2023/04/11 04:57:34;;;;;;;;;;;;;;;8.88;69.32;100450.28;5311394;32;33309;-78
2023/04/11 05:00:36;;;;;;;;;;;;;;;8.70;70.27;100450.87;5323297;32;35503;-67
2023/04/11 05:03:38;;;;;;;;;;;;;;;9.38;69.12;100439.94;5308241;32;33275;-67
2023/04/11 05:06:40;;;;;;;;;;;;;;;9.72;66.96;100440.50;5327252;32;36951;-67
2023/04/11 05:09:42;;;;;;;;;;;;;;;10.78;63.79;100431.38;5309600;32;33655;-79
2023/04/11 05:12:44;;;;;;;;;;;;;;;11.66;59.44;100426.87;5320716;32;35348;-77
2023/04/11 05:15:47;;;;;;;;;;;;;;;13.18;54.83;100418.97;5309782;32;35095;-66
2023/04/11 05:18:49;;;;;;;;;;;;;;;13.28;54.10;100420.28;5307670;32;32267;-79
2023/04/11 05:21:51;;;;;;;;;;;;;;;13.41;53.78;100420.53;5320703;32;34236;-77
2023/04/11 05:24:53;;;;;;;;;;;;;;;14.20;51.14;100412.88;5298750;32;33930;-67
2023/04/11 05:27:55;;;;;;;;;;;;;;;12.80;54.97;100414.72;5322176;32;34745;-84
2023/04/11 05:30:57;;;;;;;;;;;;;;;12.95;55.83;100406.94;5297511;32;34445;-71
2023/04/11 05:33:59;;;;;;;;;;;;;;;13.59;52.78;100408.19;5322086;32;33427;-69
2023/04/11 05:37:01;;;;;;;;;;;;;;;14.42;51.28;100396.69;5294066;32;33463;-65
2023/04/11 05:40:04;;;;;;;;;;;;;;;14.54;49.63;100398.69;5312516;32;34148;-81
2023/04/11 05:43:07;;;;;;;;;;;;;;;13.86;51.33;100411.19;5321061;32;33182;-74
2023/04/11 05:46:09;;;;;;;;;;;;;;;15.15;47.65;100389.09;5314420;32;34366;-81
2023/04/11 05:49:11;;;;;;;;;;;;;;;14.84;49.28;100396.16;5321837;32;44542;-73
2023/04/11 05:52:13;;;;;;;;;;;;;;;14.06;50.44;100403.06;5310125;32;33403;-85
2023/04/11 05:55:15;;;;;;;;;;;;;;;13.96;51.49;100393.91;5334998;32;33247;-78
2023/04/11 05:58:17;;;;;;;;;;;;;;;14.36;51.25;100382.06;5316731;32;33333;-73
2023/04/11 06:01:19;;;;;;;;;;;;;;;14.24;50.94;100381.88;5315501;32;34502;-72
2023/04/11 06:04:21;;;;;;;;;;;;;;;14.24;50.75;100382.72;5318789;32;33400;-77
2023/04/11 06:07:26;;;;;;;;;;;;;;;14.54;50.02;100377.53;5314487;32;33175;-81
2023/04/11 06:10:28;;;;;;;;;;;;;;;16.09;46.50;100373.75;5307775;32;33192;-73
2023/04/11 06:13:33;;;;;;;;;;;;;;;15.45;47.62;100366.09;5302997;32;34072;-84
2023/04/11 06:16:37;;;;;;;;;;;;;;;14.94;49.00;100362.09;5324974;32;33258;-79
2023/04/11 06:19:39;;;;;;;;;;;;;;;15.52;48.01;100363.97;5317920;32;34584;-79
2023/04/11 06:22:42;;;;;;;;;;;;;;;15.00;49.68;100364.34;5306005;32;44048;-80
2023/04/11 06:25:44;;;;;;;;;;;;;;;15.16;48.17;100367.84;5311638;32;35105;-72
2023/04/11 06:28:46;;;;;;;;;;;;;;;14.67;50.74;100368.94;5318336;32;33703;-74
2023/04/11 06:31:48;;;;;;;;;;;;;;;15.05;49.45;100359.66;5308739;32;33294;-81
2023/04/11 06:34:50;;;;;;;;;;;;;;;16.84;43.87;100356.59;5312723;32;33289;-74
2023/04/11 06:37:52;;;;;;;;;;;;;;;17.11;43.20;100337.12;5326228;32;34430;-68
2023/04/11 06:40:55;;;;;;;;;;;;;;;17.62;41.90;100351.34;5321073;32;33150;-76
2023/04/11 06:43:57;;;;;;;;;;;;;;;17.64;42.11;100349.41;5357192;27;33439;-90
2023/04/11 06:47:00;;;;;;;;;;;;;;;17.53;42.62;100354.66;5352016;32;32905;-91
2023/04/11 06:50:03;;;;;;;;;;;;;;;17.33;42.15;100350.69;5356744;32;34577;-91
2023/04/11 06:53:05;;;;;;;;;;;;;;;18.26;40.67;100341.53;5349891;32;33477;-94
2023/04/11 06:56:08;;;;;;;;;;;;;;;17.42;42.30;100347.41;5363092;32;33505;-95
2023/04/11 06:59:10;;;;;;;;;;;;;;;17.27;43.19;100344.00;5346495;32;34187;-91
2023/04/11 07:02:13;;;;;;;;;;;;;;;18.65;40.13;100328.94;5354883;32;44801;-91
2023/04/11 07:05:15;;;;;;;;;;;;;;;19.01;38.52;100337.88;5383872;32;34988;-90
2023/04/11 07:08:17;;;;;;;;;;;;;;;17.63;42.07;100346.88;5376178;32;33173;-94
2023/04/11 07:11:20;;;;;;;;;;;;;;;17.02;43.29;100344.78;5389268;32;34020;-94
2023/04/11 07:14:22;;;;;;;;;;;;;;;17.21;43.72;100340.91;5383559;32;33401;-93
2023/04/11 07:17:25;;;;;;;;;;;;;;;18.14;41.24;100326.44;5379872;32;33209;-93
2023/04/11 07:20:28;;;;;;;;;;;;;;;18.60;40.55;100315.13;5387205;32;32529;-91
2023/04/11 07:23:30;;;;;;;;;;;;;;;18.52;39.67;100315.69;5407341;32;33205;-94
2023/04/11 07:26:34;;;;;;;;;;;;;;;20.54;35.89;100308.97;5416547;32;33218;-94
2023/04/11 07:29:37;;;;;;;;;;;;;;;18.90;38.70;100312.03;5401183;32;34297;-93
2023/04/11 07:32:40;;;;;;;;;;;;;;;19.48;37.88;100312.94;5379174;32;33039;-91
2023/04/11 07:35:42;;;;;;;;;;;;;;;20.18;36.00;100314.56;5381847;32;44702;-92
2023/04/11 07:38:45;;;;;;;;;;;;;;;21.00;34.92;100307.81;5358979;32;34075;-94
2023/04/11 07:41:48;;;;;;;;;;;;;;;20.78;35.01;100306.06;5336435;32;33933;-95
2023/04/11 07:44:50;;;;;;;;;;;;;;;18.81;38.22;100313.59;5363403;32;32964;-91
2023/04/11 07:47:52;;;;;;;;;;;;;;;21.05;33.65;100302.91;5357155;32;33153;-90
2023/04/11 07:50:54;;;;;;;;;;;;;;;18.29;38.42;100322.72;5361912;32;33282;-89
2023/04/11 07:53:57;;;;;;;;;;;;;;;18.32;39.10;100322.47;5341684;32;35227;-90
2023/04/11 07:57:00;;;;;;;;;;;;;;;18.84;37.37;100315.16;5365474;32;33162;-92
2023/04/11 08:00:03;;;;;;;;;;;;;;;17.96;39.23;100303.81;5358842;32;34348;-94
2023/04/11 08:03:06;;;;;;;;;;;;;;;19.14;37.29;100299.53;5359893;32;33477;-89
2023/04/11 08:06:08;;;;;;;;;;;;;;;18.20;39.08;100299.41;5358746;32;33397;-89
2023/04/11 08:09:11;;;;;;;;;;;;;;;17.60;40.55;100289.50;5359921;32;44651;-90
2023/04/11 08:12:13;;;;;;;;;;;;;;;17.01;41.79;100291.78;5365357;32;35499;-92
2023/04/11 08:15:15;;;;;;;;;;;;;;;17.29;41.28;100296.91;5347963;32;34326;-92
2023/04/11 08:18:20;;;;;;;;;;;;;;;17.77;40.63;100293.63;5342099;32;33554;-91
2023/04/11 08:21:23;;;;;;;;;;;;;;;17.87;40.30;100287.56;5348998;32;32799;-91
2023/04/11 08:24:26;;;;;;;;;;;;;;;16.73;42.65;100284.78;5355686;32;32947;-92
2023/04/11 08:27:31;;;;;;;;;;;;;;;17.12;41.97;100278.59;5341419;32;33204;-96
2023/04/11 08:30:34;;;;;;;;;;;;;;;17.64;41.14;100264.37;5330337;32;33622;-92
2023/04/11 08:33:37;;;;;;;;;;;;;;;18.72;39.03;100257.50;5369346;32;33952;-93
2023/04/11 08:36:42;;;;;;;;;;;;;;;18.04;39.57;100257.13;5340334;32;34566;-93
2023/04/11 08:39:45;;;;;;;;;;;;;;;18.12;40.02;100249.44;5349478;32;44492;-91
2023/04/11 08:42:47;;;;;;;;;;;;;;;18.30;39.26;100244.59;5324799;32;34471;-91
2023/04/11 08:45:49;;;;;;;;;;;;;;;19.47;37.07;100234.81;5340023;32;33527;-92
2023/04/11 08:48:51;;;;;;;;;;;;;;;19.08;37.21;100228.09;5329205;32;32994;-91
2023/04/11 08:51:55;;;;;;;;;;;;;;;19.49;36.50;100216.00;5343287;32;34574;-92
2023/04/11 08:54:57;;;;;;;;;;;;;;;18.32;39.02;100224.03;5335213;32;34639;-92
2023/04/11 08:58:01;;;;;;;;;;;;;;;18.25;39.53;100220.13;5337599;32;33670;-91
2023/04/11 09:01:23;;;;;;;;;;;;;;;17.88;39.96;100200.69;5340270;32;33090;-90
2023/04/11 09:04:28;;;;;;;;;;;;;;;17.04;42.38;100219.87;5340322;32;33276;-92
2023/04/11 09:07:39;;;;;;;;;;;;;;;17.84;40.06;100200.06;5321122;32;32784;-91
2023/04/11 09:10:43;;;;;;;;;;;;;;;17.84;40.64;100197.41;5328922;32;44637;-91
2023/04/11 09:13:47;;;;;;;;;;;;;;;17.36;41.66;100200.84;5339120;32;34847;-93
2023/04/11 09:16:54;;;;;;;;;;;;;;;18.17;40.01;100201.22;5350557;32;34691;-90
2023/04/11 09:19:57;;;;;;;;;;;;;;;17.58;41.23;100206.34;5339900;32;35071;-91
2023/04/11 09:23:00;;;;;;;;;;;;;;;17.29;42.75;100195.97;5316016;32;33216;-91
2023/04/11 09:26:06;;;;;;;;;;;;;;;18.41;40.08;100193.22;5328575;32;35151;-91
2023/04/11 09:29:09;;;;;;;;;;;;;;;18.85;39.52;100189.06;5315008;32;32508;-91
2023/04/11 09:32:41;;;;;;;;;;;;;;;18.68;40.07;100174.38;5323433;32;44255;-95
2023/04/11 09:35:46;;;;;;;;;;;;;;;19.09;38.60;100167.66;5328299;32;43436;-94
2023/04/11 09:38:48;;;;;;;;;;;;;;;20.25;36.57;100156.50;5324983;32;32951;-92
2023/04/11 09:41:51;;;;;;;;;;;;;;;20.60;35.60;100152.72;5344683;32;34566;-92
2023/04/11 09:44:56;;;;;;;;;;;;;;;21.07;35.09;100143.34;5368214;32;34079;-93
2023/04/11 09:47:59;;;;;;;;;;;;;;;21.41;34.27;100145.75;5362243;32;32750;-93
2023/04/11 09:51:03;;;;;;;;;;;;;;;22.27;33.03;100140.72;5324293;32;34848;-95
2023/04/11 09:54:05;;;;;;;;;;;;;;;24.22;29.45;100134.53;5351676;32;34373;-96
2023/04/11 09:57:08;;;;;;;;;;;;;;;22.60;31.87;100136.75;5337143;32;33841;-91
2023/04/11 10:00:17;;;;;;;;;;;;;;;24.15;29.45;100133.41;5326761;32;34604;-92
2023/04/11 10:03:22;;;;;;;;;;;;;;;22.94;30.79;100134.47;5342020;32;44136;-93
2023/04/11 10:06:44;;;;;;;;;;;;;;;21.58;33.56;100130.91;5322608;32;34443;-92
2023/04/11 10:09:46;;;;;;;;;;;;;;;23.55;30.42;100117.84;5359472;32;44230;-91
2023/04/11 10:12:51;;;;;;;;;;;;;;;23.80;29.44;100118.16;5335742;32;33333;-94
2023/04/11 10:16:13;;;;;;;;;;;;;;;24.37;29.09;100113.38;5356088;27;33200;-74
2023/04/11 10:19:18;;;;;;;;;;;;;;;25.16;27.99;100117.78;5343548;32;43851;-77
2023/04/11 10:22:50;;;;;;;;;;;;;;;25.69;27.12;100104.00;5343395;32;34302;-75
2023/04/11 10:25:59;;;;;;;;;;;;;;;24.50;28.53;100105.75;5334204;32;33435;-78
2023/04/11 10:29:01;;;;;;;;;;;;;;;24.29;28.42;100098.00;5350066;32;34530;-75
2023/04/11 10:32:16;;;;;;;;;;;;;;;23.16;30.35;100085.84;5318064;32;33711;-75
2023/04/11 10:35:20;;;;;;;;;;;;;;;24.64;27.63;100064.88;5351514;32;44657;-76
2023/04/11 10:38:47;;;;;;;;;;;;;;;26.01;25.48;100064.72;5339294;32;34454;-78
2023/04/11 10:41:50;;;;;;;;;;;;;;;26.18;25.44;100061.06;5349006;32;48402;-79
2023/04/11 10:45:10;;;;;;;;;;;;;;;24.91;27.54;100054.94;5336603;32;33280;-71
2023/04/11 10:48:13;;;;;;;;;;;;;;;24.05;28.88;100061.88;5346056;32;44850;-73
2023/04/11 10:51:27;;;;;;;;;;;;;;;24.70;27.86;100052.66;5373854;27;35022;-96
2023/04/11 10:54:31;;;;;;;;;;;;;;;23.85;29.13;100049.63;5330333;32;33172;-94
2023/04/11 10:57:34;;;;;;;;;;;;;;;24.61;27.67;100037.50;5318819;32;34546;-96
2023/04/11 11:00:49;;;;;;;;;;;;;;;25.92;25.67;100036.97;5311451;32;32213;-95
2023/04/11 11:03:52;;;;;;;;;;;;;;;23.72;29.44;100043.78;5336603;32;36080;-96
2023/04/11 11:06:55;;;;;;;;;;;;;;;24.47;27.96;100020.94;5326126;32;34256;-95
2023/04/11 11:09:58;;;;;;;;;;;;;;;24.61;27.65;100014.16;5342934;32;32839;-93
2023/04/11 11:13:02;;;;;;;;;;;;;;;24.23;28.56;100018.91;5325280;32;33121;-94
2023/04/11 11:16:05;;;;;;;;;;;;;;;23.72;29.33;100025.00;5331867;32;33278;-94
2023/04/11 11:19:08;;;;;;;;;;;;;;;24.50;28.03;100012.56;5361125;32;34582;-95
2023/04/11 11:22:24;;;;;;;;;;;;;;;24.08;28.40;100007.03;5352477;32;44255;-96
2023/04/11 11:25:28;;;;;;;;;;;;;;;24.77;26.45;99998.09;5337714;32;33346;-94
2023/04/11 11:28:30;;;;;;;;;;;;;;;25.97;25.87;99994.25;5365339;27;33813;-76
2023/04/11 11:31:44;;;;;;;;;;;;;;;25.52;25.85;99992.00;5324183;32;34623;-75
2023/04/11 11:34:46;;;;;;;;;;;;;;;26.97;22.78;99981.22;5324299;32;46265;-76
2023/04/11 11:37:52;;;;;;;;;;;;;;;25.53;24.36;99978.37;5324081;32;33381;-76
2023/04/11 11:40:55;;;;;;;;;;;;;;;24.92;25.91;99970.59;5335207;32;33241;-75
2023/04/11 11:43:57;;;;;;;;;;;;;;;24.55;27.17;99979.84;5329730;32;33426;-80
2023/04/11 11:47:03;;;;;;;;;;;;;;;23.25;28.27;99984.94;5321150;32;34883;-81
2023/04/11 11:50:06;;;;;;;;;;;;;;;23.34;28.25;99973.28;5326378;32;35072;-80
2023/04/11 11:53:12;;;;;;;;;;;;;;;24.21;26.17;99972.53;5332191;32;33064;-78
2023/04/11 11:56:15;;;;;;;;;;;;;;;24.26;26.25;99975.59;5330508;32;45084;-78
2023/04/11 11:59:25;;;;;;;;;;;;;;;27.75;21.88;99964.94;5332623;32;33342;-83
2023/04/11 12:02:31;;;;;;;;;;;;;;;26.83;22.82;99950.44;5331792;32;34375;-72
2023/04/11 12:05:33;;;;;;;;;;;;;;;27.03;22.36;99967.03;5314990;32;34012;-77
2023/04/11 12:08:39;;;;;;;;;;;;;;;23.62;26.57;99966.06;5313139;32;33242;-78
2023/04/11 12:11:43;;;;;;;;;;;;;;;22.97;27.99;99970.69;5322679;32;44292;-83
2023/04/11 12:14:51;;;;;;;;;;;;;;;22.35;28.54;99959.69;5314612;32;33421;-71
2023/04/11 12:17:56;;;;;;;;;;;;;;;21.97;29.45;99965.94;5335641;32;34952;-74
2023/04/11 12:20:58;;;;;;;;;;;;;;;21.97;29.58;99960.56;5324541;32;33353;-73
2023/04/11 12:24:00;;;;;;;;;;;;;;;22.60;28.70;99962.66;5316685;32;33265;-75
2023/04/11 12:27:03;;;;;;;;;;;;;;;24.41;26.04;99956.25;5325592;32;34732;-75
2023/04/11 12:30:09;;;;;;;;;;;;;;;25.17;24.58;99956.25;5319984;32;34054;-70
2023/04/11 12:33:11;;;;;;;;;;;;;;;25.41;24.19;99952.78;5328252;32;44579;-73
2023/04/11 12:36:14;;;;;;;;;;;;;;;23.65;26.35;99959.56;5338553;32;32550;-83
2023/04/11 12:39:16;;;;;;;;;;;;;;;24.21;26.09;99955.59;5322697;32;34885;-75
2023/04/11 12:42:18;;;;;;;;;;;;;;;25.09;24.25;99946.34;5342976;32;34435;-77
2023/04/11 12:45:27;;;;;;;;;;;;;;;23.82;26.07;99941.72;5325295;32;34623;-79
2023/04/11 12:48:29;;;;;;;;;;;;;;;24.02;26.13;99935.16;5322956;32;34293;-70
2023/04/11 12:51:31;;;;;;;;;;;;;;;25.36;24.24;99926.38;5333289;32;33299;-74
2023/04/11 12:54:34;;;;;;;;;;;;;;;24.61;24.43;99930.84;5337980;32;31997;-74
2023/04/11 12:57:36;;;;;;;;;;;;;;;23.58;25.98;99926.25;5340596;32;34465;-76
2023/04/11 13:00:39;;;;;;;;;;;;;;;23.49;26.18;99923.50;5318114;32;33292;-71
2023/04/11 13:03:42;;;;;;;;;;;;;;;24.42;24.43;99912.31;5323436;32;44271;-70
2023/04/11 13:06:46;;;;;;;;;;;;;;;22.65;26.74;99915.69;5336730;32;36360;-74
2023/04/11 13:09:50;;;;;;;;;;;;;;;21.96;27.92;99913.41;5343507;32;36869;-78
2023/04/11 13:12:55;;;;;;;;;;;;;;;21.07;29.68;99904.69;5336067;32;34656;-70
2023/04/11 13:16:01;;;;;;;;;;;;;;;22.54;27.27;99898.97;5335670;32;33198;-74
2023/04/11 13:19:03;;;;;;;;;;;;;;;22.80;26.71;99893.75;5329847;32;34940;-82
2023/04/11 13:22:06;;;;;;;;;;;;;;;22.16;27.56;99888.31;5338195;32;33928;-67
2023/04/11 13:25:09;;;;;;;;;;;;;;;21.35;28.66;99879.81;5347644;32;33383;-68
2023/04/11 13:28:11;;;;;;;;;;;;;;;20.89;29.64;99888.50;5333126;32;44578;-81
2023/04/11 13:31:13;;;;;;;;;;;;;;;21.00;29.53;99879.50;5307573;32;33684;-72
2023/04/11 13:34:16;;;;;;;;;;;;;;;20.15;30.79;99887.91;5338207;32;33322;-81
2023/04/11 13:37:18;;;;;;;;;;;;;;;20.04;30.43;99880.88;5318200;32;34303;-68
2023/04/11 13:40:20;;;;;;;;;;;;;;;20.63;29.61;99871.28;5347898;32;34618;-70
2023/04/11 13:43:22;;;;;;;;;;;;;;;20.27;30.08;99876.19;5324816;32;33227;-80
2023/04/11 13:46:25;;;;;;;;;;;;;;;20.06;30.05;99865.56;5345698;32;34799;-72
2023/04/11 13:49:27;;;;;;;;;;;;;;;20.34;29.55;99853.31;5330518;32;33342;-76
2023/04/11 13:52:29;;;;;;;;;;;;;;;19.78;30.03;99869.78;5324716;32;33390;-71
2023/04/11 13:55:31;;;;;;;;;;;;;;;19.86;30.36;99855.78;5331341;32;36318;-67
2023/04/11 13:58:34;;;;;;;;;;;;;;;19.29;30.84;99865.88;5327386;32;33192;-78
2023/04/11 14:01:56;;;;;;;;;;;;;;;19.91;30.29;99856.22;5329585;32;33350;-70
2023/04/11 14:04:59;;;;;;;;;;;;;;;20.34;29.65;99868.47;5389029;32;32681;-94
2023/04/11 14:08:06;;;;;;;;;;;;;;;19.24;31.17;99860.09;5387353;32;34139;-93
2023/04/11 14:11:11;;;;;;;;;;;;;;;20.47;29.68;99850.44;5359860;32;44269;-95
2023/04/11 14:14:13;;;;;;;;;;;;;;;20.48;29.63;99854.78;5375970;32;33226;-96
2023/04/11 14:17:16;;;;;;;;;;;;;;;19.57;30.75;99859.06;5383873;32;34497;-95
2023/04/11 14:20:19;;;;;;;;;;;;;;;18.93;31.40;99867.97;5372848;32;33248;-94
2023/04/11 14:23:22;;;;;;;;;;;;;;;18.85;30.85;99872.22;5392875;32;31657;-92
2023/04/11 14:26:24;;;;;;;;;;;;;;;19.11;29.75;99870.06;5393388;32;34662;-96
2023/04/11 14:29:33;;;;;;;;;;;;;;;19.11;29.72;99872.72;5366099;32;34197;-93
2023/04/11 14:32:35;;;;;;;;;;;;;;;19.37;29.61;99865.22;5362561;32;33625;-96
2023/04/11 14:35:41;;;;;;;;;;;;;;;19.04;30.21;99880.38;5357819;32;33119;-95
2023/04/11 14:38:43;;;;;;;;;;;;;;;19.01;31.32;99885.13;5370671;32;44441;-91
2023/04/11 14:41:46;;;;;;;;;;;;;;;18.33;33.41;99898.50;5370567;32;33282;-93
2023/04/11 14:44:49;;;;;;;;;;;;;;;18.14;34.36;99906.22;5368133;32;34295;-92
2023/04/11 14:51:18;;;;;;;;;;;;;;;17.92;36.17;99912.38;5348048;27;44217;-83
2023/04/11 14:54:22;;;;;;;;;;;;;;;17.56;36.79;99910.66;5342892;32;37728;-84
2023/04/11 14:57:24;;;;;;;;;;;;;;;16.87;38.75;99918.44;5321208;32;34682;-84
2023/04/11 15:00:26;;;;;;;;;;;;;;;16.41;40.19;99929.62;5331809;32;32378;-75
2023/04/11 15:03:28;;;;;;;;;;;;;;;16.67;40.07;99932.25;5317915;32;33693;-75
2023/04/11 15:06:34;;;;;;;;;;;;;;;16.60;40.85;99942.44;5340196;32;34203;-81
2023/04/11 15:09:36;;;;;;;;;;;;;;;16.62;41.35;99929.94;5319260;32;34308;-74
2023/04/11 15:12:39;;;;;;;;;;;;;;;16.25;42.29;99927.22;5333614;32;33282;-83
2023/04/11 15:15:42;;;;;;;;;;;;;;;16.08;43.29;99939.94;5343009;32;43315;-75
2023/04/11 15:18:44;;;;;;;;;;;;;;;15.52;44.95;99947.25;5333925;32;33389;-84
2023/04/11 15:21:46;;;;;;;;;;;;;;;15.11;47.09;99949.03;5344763;32;33164;-86
2023/04/11 15:24:48;;;;;;;;;;;;;;;15.57;46.96;99934.56;5334425;32;33916;-85
2023/04/11 15:27:50;;;;;;;;;;;;;;;14.81;50.21;99950.97;5322185;32;34564;-85
2023/04/11 15:30:53;;;;;;;;;;;;;;;15.16;50.82;99952.22;5317670;32;34972;-76
2023/04/11 15:34:00;;;;;;;;;;;;;;;14.55;55.57;99963.19;5333372;32;34545;-76
2023/04/11 15:37:02;;;;;;;;;;;;;;;14.60;57.45;99974.34;5342657;32;33283;-76
2023/04/11 15:40:08;;;;;;;;;;;;;;;14.65;57.95;99961.69;5331500;32;33504;-84
2023/04/11 15:43:10;;;;;;;;;;;;;;;14.77;58.47;99966.22;5329721;32;44395;-75
2023/04/11 15:46:12;;;;;;;;;;;;;;;14.09;60.48;99958.06;5333067;32;33565;-75
2023/04/11 15:49:14;;;;;;;;;;;;;;;13.70;62.86;99971.84;5320250;32;33737;-85
2023/04/11 15:52:17;;;;;;;;;;;;;;;13.50;63.73;99983.56;5339922;32;34428;-75